Time;durP1;ratioP1;P1;durP2;ratioP2;P2;SDS_P1;SDS_P2;PMS_P1;PMS_P2;Temp;Humidity;BMP_temperature;BMP_pressure;BME280_temperature;BME280_humidity;BME280_pressure;Samples;Min_cycle;Max_cycle;Signal;HPM_P1;HPM_P2
2021/06/09 00:00:54;;;;;;;30.00;27.27;;;17.20;99.90;;;;;;4974481;28;20438;-68
2021/06/09 00:03:21;;;;;;;30.30;27.50;;;17.20;99.90;;;;;;4974367;28;20183;-68
2021/06/09 00:05:48;;;;;;;30.47;27.67;;;17.20;99.90;;;;;;4974727;28;20183;-67
2021/06/09 00:08:14;;;;;;;30.00;27.33;;;17.20;99.90;;;;;;4973688;28;20952;-67
2021/06/09 00:10:40;;;;;;;30.57;27.93;;;17.20;99.90;;;;;;4974327;28;20443;-68
2021/06/09 00:13:06;;;;;;;30.50;27.77;;;17.10;99.90;;;;;;4974236;28;20800;-68
2021/06/09 00:15:31;;;;;;;29.70;27.10;;;17.10;99.90;;;;;;4974503;28;20416;-69
2021/06/09 00:17:57;;;;;;;33.40;30.20;;;17.00;99.90;;;;;;4972866;28;20470;-65
2021/06/09 00:20:24;;;;;;;32.77;29.87;;;17.00;99.90;;;;;;4974026;28;20169;-65
2021/06/09 00:22:50;;;;;;;28.67;26.27;;;17.00;99.90;;;;;;4972870;28;20599;-67
2021/06/09 00:25:17;;;;;;;31.57;28.77;;;17.00;99.90;;;;;;4974072;28;20439;-65
2021/06/09 00:27:47;;;;;;;30.60;28.00;;;17.10;99.90;;;;;;4971918;28;20227;-66
2021/06/09 00:30:17;;;;;;;30.10;27.70;;;17.00;99.90;;;;;;4973946;28;20773;-66
2021/06/09 00:32:44;;;;;;;29.43;26.73;;;17.00;99.90;;;;;;4973742;28;20419;-66
2021/06/09 00:35:10;;;;;;;31.87;28.80;;;16.90;99.90;;;;;;4974003;28;20423;-66
2021/06/09 00:37:36;;;;;;;32.73;29.60;;;16.80;99.90;;;;;;4972769;28;20550;-65
2021/06/09 00:40:04;;;;;;;31.60;28.63;;;16.80;99.90;;;;;;4973754;28;20416;-66
2021/06/09 00:42:30;;;;;;;30.90;28.10;;;16.70;99.90;;;;;;4973600;28;20424;-66
2021/06/09 00:44:55;;;;;;;30.67;27.67;;;16.60;99.90;;;;;;4972439;28;20486;-66
2021/06/09 00:47:22;;;;;;;33.33;30.13;;;16.60;99.90;;;;;;4972774;28;20172;-66
2021/06/09 00:49:49;;;;;;;33.40;30.40;;;16.60;99.90;;;;;;4973614;28;20171;-65
2021/06/09 00:52:15;;;;;;;32.83;29.97;;;16.60;99.90;;;;;;4973431;28;20419;-65
2021/06/09 00:54:41;;;;;;;33.27;30.20;;;16.60;99.90;;;;;;4973406;28;20419;-65
2021/06/09 00:57:07;;;;;;;30.40;27.70;;;16.60;99.90;;;;;;4973261;28;20169;-65
2021/06/09 00:59:35;;;;;;;31.43;28.37;;;16.60;99.90;;;;;;4967043;28;20212;-65
2021/06/09 01:02:00;;;;;;;31.30;28.50;;;16.60;99.90;;;;;;4954229;28;20792;-65
2021/06/09 01:04:26;;;;;;;30.33;27.63;;;16.60;99.90;;;;;;4953986;29;20419;-65
2021/06/09 01:06:52;;;;;;;29.57;26.87;;;16.60;99.90;;;;;;4953970;29;20176;-65
2021/06/09 01:09:17;;;;;;;32.73;29.83;;;16.60;99.90;;;;;;4953031;29;20276;-66
2021/06/09 01:11:44;;;;;;;31.30;28.57;;;16.60;99.90;;;;;;4953725;29;20440;-65
2021/06/09 01:14:09;;;;;;;33.37;30.47;;;16.60;99.90;;;;;;4953507;28;20676;-66
2021/06/09 01:16:35;;;;;;;30.27;27.67;;;16.70;99.90;;;;;;4953683;29;20428;-65
2021/06/09 01:19:01;;;;;;;32.57;29.50;;;16.70;99.90;;;;;;4964498;28;20207;-65
2021/06/09 01:21:31;;;;;;;29.90;27.30;;;16.70;99.90;;;;;;4973055;28;20549;-65
2021/06/09 01:23:58;;;;;;;28.33;25.87;;;16.70;99.90;;;;;;4972816;28;20478;-65
2021/06/09 01:26:26;;;;;;;30.70;27.93;;;16.70;99.90;;;;;;4973000;28;20774;-65
2021/06/09 01:28:56;;;;;;;32.50;29.43;;;16.70;99.90;;;;;;4971877;28;20443;-65
2021/06/09 01:31:26;;;;;;;30.00;27.30;;;16.70;99.90;;;;;;4972814;28;20419;-65
2021/06/09 01:33:52;;;;;;;29.47;26.93;;;16.70;99.90;;;;;;4972318;28;20423;-65
2021/06/09 01:36:20;;;;;;;31.50;28.60;;;16.70;99.90;;;;;;4972782;28;20806;-65
2021/06/09 01:38:46;;;;;;;31.03;28.37;;;16.70;99.90;;;;;;4971677;28;20623;-66
2021/06/09 01:41:11;;;;;;;29.97;27.23;;;16.70;99.90;;;;;;4972520;28;20412;-66
2021/06/09 01:43:37;;;;;;;28.73;26.13;;;16.70;99.90;;;;;;4972332;28;20219;-65
2021/06/09 01:46:03;;;;;;;31.13;28.30;;;16.60;99.90;;;;;;4972553;28;20164;-65
2021/06/09 01:48:29;;;;;;;29.60;27.10;;;16.60;99.90;;;;;;4971973;28;20208;-66
2021/06/09 01:50:55;;;;;;;29.50;27.00;;;16.60;99.90;;;;;;4972554;28;21008;-65
2021/06/09 01:53:20;;;;;;;30.80;27.97;;;16.50;99.90;;;;;;4972335;28;20259;-66
2021/06/09 01:55:48;;;;;;;30.40;27.60;;;16.50;99.90;;;;;;4972712;28;20529;-65
2021/06/09 01:58:14;;;;;;;29.87;27.27;;;16.60;99.90;;;;;;4971294;28;20216;-65
2021/06/09 02:00:45;;;;;;;30.67;28.00;;;16.60;99.90;;;;;;4957909;28;20420;-65
2021/06/09 02:03:15;;;;;;;30.47;27.77;;;16.60;99.90;;;;;;4953180;28;20765;-66
2021/06/09 02:05:42;;;;;;;30.40;27.60;;;16.60;99.90;;;;;;4953149;28;20417;-66
2021/06/09 02:08:09;;;;;;;27.90;25.30;;;16.60;99.90;;;;;;4952373;28;20440;-66
2021/06/09 02:10:37;;;;;;;29.10;26.70;;;16.60;99.90;;;;;;4952772;28;20817;-66
2021/06/09 02:13:09;;;;;;;29.43;26.83;;;16.50;99.90;;;;;;4953089;28;20472;-66
2021/06/09 02:15:36;;;;;;;29.50;26.90;;;16.50;99.90;;;;;;4952884;28;20417;-66
2021/06/09 02:18:10;;;;;;;31.20;28.50;;;16.50;99.90;;;;;;4956175;28;20455;-66
2021/06/09 02:20:45;;;;;;;30.43;27.70;;;16.60;99.90;;;;;;4971669;28;20453;-66
2021/06/09 02:23:16;;;;;;;29.00;26.60;;;16.60;99.90;;;;;;4972259;28;20792;-66
2021/06/09 02:25:45;;;;;;;27.50;25.20;;;16.70;99.90;;;;;;4971860;28;20450;-65
2021/06/09 02:28:11;;;;;;;27.57;25.17;;;16.70;99.90;;;;;;4971158;28;20454;-66
2021/06/09 02:30:37;;;;;;;30.43;27.70;;;16.70;99.90;;;;;;4971845;28;20483;-65
2021/06/09 02:33:04;;;;;;;29.17;26.20;;;16.70;99.90;;;;;;4972071;28;20502;-66
2021/06/09 02:35:37;;;;;;;28.93;26.53;;;16.70;99.90;;;;;;4971744;28;20453;-66
2021/06/09 02:38:04;;;;;;;28.33;25.63;;;16.60;99.90;;;;;;4971139;28;20471;-66
2021/06/09 02:40:30;;;;;;;32.33;29.47;;;16.60;99.90;;;;;;4971800;28;20435;-66
2021/06/09 02:42:55;;;;;;;28.23;25.60;;;16.60;99.90;;;;;;4971749;28;20424;-66
2021/06/09 02:45:21;;;;;;;29.13;26.43;;;16.70;99.90;;;;;;4971782;28;20592;-66
2021/06/09 02:47:51;;;;;;;30.10;27.40;;;16.70;99.90;;;;;;4975327;28;20302;-66
2021/06/09 02:50:18;;;;;;;26.70;24.40;;;16.70;99.90;;;;;;4975674;28;20796;-65
2021/06/09 02:53:08;;;;;;;28.93;26.53;;;16.70;99.90;;;;;;4975712;28;20778;-66
2021/06/09 02:55:43;;;;;;;29.70;27.10;;;16.70;99.90;;;;;;4975791;28;20427;-65
2021/06/09 02:58:19;;;;;;;30.17;27.33;;;16.70;99.90;;;;;;4974730;28;20462;-65
2021/06/09 03:01:09;;;;;;;32.60;29.50;;;16.70;99.90;;;;;;4960511;28;20785;-65
2021/06/09 03:03:56;;;;;;;27.90;25.50;;;16.70;99.90;;;;;;4956169;29;20427;-65
2021/06/09 03:06:38;;;;;;;28.47;26.07;;;16.70;99.90;;;;;;4956103;28;20532;-65
2021/06/09 03:09:45;;;;;;;31.67;28.90;;;16.70;99.90;;;;;;4955508;28;20439;-66
2021/06/09 03:12:25;;;;;;;29.00;26.60;;;16.60;99.90;;;;;;4954894;29;20531;-65
2021/06/09 03:15:13;;;;;;;31.73;29.03;;;16.70;99.90;;;;;;4955964;28;20442;-65
2021/06/09 03:17:58;;;;;;;30.60;28.00;;;16.60;99.90;;;;;;4956293;28;20468;-65
2021/06/09 03:20:33;;;;;;;32.20;29.27;;;16.60;99.90;;;;;;4975278;28;20769;-67
2021/06/09 03:23:02;;;;;;;29.00;26.60;;;16.60;99.90;;;;;;4975791;28;20415;-65
2021/06/09 03:25:33;;;;;;;30.03;27.43;;;16.70;99.90;;;;;;4975402;28;20419;-65
2021/06/09 03:28:15;;;;;;;28.50;26.20;;;16.70;99.90;;;;;;4974156;28;20439;-66
2021/06/09 03:30:42;;;;;;;27.10;25.00;;;16.70;99.90;;;;;;4975227;28;20427;-66
2021/06/09 03:33:09;;;;;;;29.93;27.33;;;16.70;99.90;;;;;;4974993;28;20478;-66
2021/06/09 03:35:58;;;;;;;31.87;28.90;;;16.70;99.90;;;;;;4974897;28;20427;-68
2021/06/09 03:38:34;;;;;;;30.13;27.37;;;16.70;99.90;;;;;;4974056;28;20459;-68
2021/06/09 03:41:04;;;;;;;30.17;27.67;;;16.70;99.90;;;;;;4974812;28;20431;-68
2021/06/09 03:43:34;;;;;;;30.70;28.13;;;16.70;99.90;;;;;;4974757;28;20418;-69
2021/06/09 03:46:01;;;;;;;28.47;25.97;;;16.80;99.90;;;;;;4974648;28;20415;-68
2021/06/09 03:48:31;;;;;;;27.00;24.70;;;16.70;99.90;;;;;;4974046;28;20443;-68
2021/06/09 03:51:00;;;;;;;27.40;24.93;;;16.70;99.90;;;;;;4974804;28;20427;-68
2021/06/09 03:53:26;;;;;;;27.80;25.20;;;16.60;99.90;;;;;;4975020;28;20435;-68
2021/06/09 03:55:54;;;;;;;28.23;25.97;;;16.60;99.90;;;;;;4974594;28;20426;-68
2021/06/09 03:58:20;;;;;;;29.20;26.57;;;16.70;99.90;;;;;;4973756;28;20455;-68
2021/06/09 04:00:48;;;;;;;28.93;26.43;;;16.70;99.90;;;;;;4959571;28;20416;-67
2021/06/09 04:03:13;;;;;;;29.37;26.77;;;16.70;99.90;;;;;;4955443;28;21018;-67
2021/06/09 04:05:42;;;;;;;27.73;25.50;;;16.70;99.90;;;;;;4955145;29;20507;-68
2021/06/09 04:08:12;;;;;;;28.63;26.07;;;16.60;99.90;;;;;;4954342;28;20200;-67
2021/06/09 04:10:40;;;;;;;28.33;25.83;;;16.50;99.90;;;;;;4955146;28;20420;-67
2021/06/09 04:13:06;;;;;;;29.50;27.00;;;16.40;99.90;;;;;;4954874;28;20429;-68
2021/06/09 04:15:32;;;;;;;26.93;24.57;;;16.40;99.90;;;;;;4969608;28;20985;-68
2021/06/09 04:17:58;;;;;;;29.30;26.50;;;16.50;99.90;;;;;;4957861;28;20231;-67
2021/06/09 04:20:29;;;;;;;27.60;25.07;;;16.60;99.90;;;;;;4974222;28;20452;-67
2021/06/09 04:22:56;;;;;;;27.20;24.70;;;16.70;99.90;;;;;;4974123;28;20423;-68
2021/06/09 04:25:22;;;;;;;30.27;27.57;;;16.80;99.90;;;;;;4974037;28;21012;-67
2021/06/09 04:27:48;;;;;;;28.30;25.90;;;16.90;99.90;;;;;;4973593;28;20439;-67
2021/06/09 04:30:16;;;;;;;28.67;26.20;;;17.00;99.90;;;;;;4974212;28;20451;-67
2021/06/09 04:32:49;;;;;;;27.40;25.03;;;17.00;99.90;;;;;;4974265;28;20452;-68
2021/06/09 04:35:15;;;;;;;25.67;23.53;;;17.10;99.90;;;;;;4974011;28;20780;-67
2021/06/09 04:37:41;;;;;;;28.50;26.00;;;17.20;99.90;;;;;;4972887;28;20474;-68
2021/06/09 04:40:07;;;;;;;30.73;28.13;;;17.20;99.90;;;;;;4973718;28;20412;-66
2021/06/09 04:42:32;;;;;;;30.93;27.90;;;17.10;99.90;;;;;;4973595;28;20179;-67
2021/06/09 04:44:58;;;;;;;29.53;27.13;;;17.00;99.90;;;;;;4973678;28;20506;-68
2021/06/09 04:47:29;;;;;;;28.07;25.70;;;17.00;99.90;;;;;;4972774;28;20203;-68
2021/06/09 04:49:54;;;;;;;25.70;23.50;;;17.10;99.90;;;;;;4973430;28;20207;-68
2021/06/09 04:52:20;;;;;;;28.07;25.77;;;17.20;99.90;;;;;;4981237;28;20463;-67
2021/06/09 04:54:46;;;;;;;30.77;28.27;;;17.30;99.90;;;;;;4977522;28;20186;-68
2021/06/09 04:57:11;;;;;;;31.50;28.80;;;17.30;99.90;;;;;;4973129;28;20254;-67
2021/06/09 04:59:37;;;;;;;27.20;24.90;;;17.40;99.90;;;;;;4966937;28;20201;-68
2021/06/09 05:02:03;;;;;;;30.80;28.00;;;17.60;99.90;;;;;;4953865;28;20165;-69
2021/06/09 05:04:28;;;;;;;28.77;26.27;;;17.70;99.90;;;;;;4954059;28;20199;-67
2021/06/09 05:06:54;;;;;;;28.73;26.20;;;17.70;99.90;;;;;;4954016;28;20416;-67
2021/06/09 05:09:20;;;;;;;27.47;25.17;;;17.80;99.90;;;;;;4952471;28;20232;-68
2021/06/09 05:12:06;;;;;;;25.77;23.57;;;17.90;99.90;;;;;;4953727;28;20208;-68
2021/06/09 05:14:45;;;;;;;28.07;25.53;;;17.90;99.90;;;;;;4953719;28;20216;-67
2021/06/09 05:17:13;;;;;;;27.90;25.50;;;18.00;99.90;;;;;;4953676;28;20459;-67
2021/06/09 05:19:40;;;;;;;28.00;25.70;;;18.10;99.90;;;;;;4970056;28;20493;-68
2021/06/09 05:22:14;;;;;;;27.40;25.00;;;18.10;99.90;;;;;;4972882;28;20766;-68
2021/06/09 05:24:40;;;;;;;29.63;26.93;;;18.10;99.90;;;;;;4972809;28;20474;-67
2021/06/09 05:27:07;;;;;;;27.23;25.00;;;18.10;99.90;;;;;;4972761;28;20451;-68
2021/06/09 05:29:34;;;;;;;28.80;25.93;;;18.20;99.90;;;;;;4973177;28;20447;-67
2021/06/09 05:32:02;;;;;;;32.00;28.93;;;18.30;99.90;;;;;;4983525;28;21113;-67
2021/06/09 05:34:28;;;;;;;27.60;25.33;;;18.30;99.90;;;;;;4972691;28;20867;-67
2021/06/09 05:36:54;;;;;;;25.73;23.73;;;18.40;99.90;;;;;;4972669;28;20466;-68
2021/06/09 05:39:20;;;;;;;27.60;25.00;;;18.50;99.90;;;;;;4994020;23;20487;-67
2021/06/09 05:41:46;;;;;;;28.10;25.50;;;18.50;99.90;;;;;;4972684;28;20420;-67
2021/06/09 05:44:16;;;;;;;25.00;22.93;;;18.50;99.90;;;;;;4972690;28;20255;-67
2021/06/09 05:46:43;;;;;;;27.30;25.10;;;18.50;99.90;;;;;;4972732;28;20901;-67
2021/06/09 05:49:17;;;;;;;27.57;25.17;;;18.60;99.90;;;;;;4972645;28;20462;-66
2021/06/09 05:51:43;;;;;;;24.67;22.67;;;18.70;99.90;;;;;;4987834;28;20439;-66
2021/06/09 05:54:08;;;;;;;25.43;23.23;;;18.80;99.90;;;;;;4991716;28;20437;-67
2021/06/09 05:56:34;;;;;;;26.17;23.93;;;18.90;99.90;;;;;;4990525;28;20179;-66
2021/06/09 05:58:59;;;;;;;24.67;22.80;;;19.00;99.90;;;;;;4989712;28;20211;-66
2021/06/09 06:01:25;;;;;;;23.30;21.50;;;19.10;99.90;;;;;;4973538;28;20208;-66
2021/06/09 06:03:52;;;;;;;24.27;22.27;;;19.20;99.90;;;;;;4973148;28;20681;-66
2021/06/09 06:06:19;;;;;;;25.90;23.57;;;19.30;99.90;;;;;;4972227;28;20168;-66
2021/06/09 06:08:45;;;;;;;22.27;20.57;;;19.60;99.90;;;;;;4971388;28;20439;-72
2021/06/09 06:11:14;;;;;;;23.20;21.37;;;19.80;99.90;;;;;;4972302;28;20431;-68
2021/06/09 06:13:42;;;;;;;21.87;20.00;;;19.90;99.90;;;;;;4972126;28;20888;-67
2021/06/09 06:16:08;;;;;;;19.93;18.43;;;20.00;99.90;;;;;;4972060;28;20419;-67
2021/06/09 06:18:34;;;;;;;21.93;20.20;;;20.10;99.90;;;;;;4968706;28;20470;-67
2021/06/09 06:21:00;;;;;;;21.23;19.53;;;20.20;99.90;;;;;;4966132;28;20178;-67
2021/06/09 06:23:26;;;;;;;19.27;17.77;;;20.40;99.90;;;;;;4971924;28;20515;-68
2021/06/09 06:25:54;;;;;;;21.10;19.40;;;20.50;99.90;;;;;;4971850;28;20423;-67
2021/06/09 06:28:19;;;;;;;21.97;20.17;;;20.60;99.90;;;;;;4971247;28;20522;-68
2021/06/09 06:30:45;;;;;;;20.27;18.67;;;20.60;99.90;;;;;;4971927;28;20518;-66
2021/06/09 06:33:12;;;;;;;20.83;19.27;;;20.70;99.90;;;;;;4966442;28;20231;-69
2021/06/09 06:35:40;;;;;;;21.10;19.57;;;20.60;99.90;;;;;;4947543;28;20179;-74
2021/06/09 06:38:06;;;;;;;20.67;19.07;;;20.50;99.90;;;;;;4939139;28;21171;-74
2021/06/09 06:40:33;;;;;;;20.50;18.90;;;20.50;99.90;;;;;;4965956;28;20502;-71
2021/06/09 06:42:58;;;;;;;21.17;19.50;;;20.50;99.90;;;;;;4968047;28;20164;-75
2021/06/09 06:45:25;;;;;;;21.80;19.97;;;20.50;99.90;;;;;;4964766;28;20431;-74
2021/06/09 06:47:54;;;;;;;21.73;20.03;;;20.60;99.90;;;;;;4967591;28;20207;-74
2021/06/09 06:50:22;;;;;;;26.30;22.70;;;20.60;99.90;;;;;;4968159;28;20811;-75
2021/06/09 06:52:49;;;;;;;22.17;20.10;;;20.70;99.90;;;;;;4967952;28;20431;-74
2021/06/09 06:55:17;;;;;;;18.93;17.43;;;20.70;99.90;;;;;;4965168;28;20522;-74
2021/06/09 06:57:43;;;;;;;19.77;18.27;;;20.70;99.90;;;;;;4967129;28;20447;-74
2021/06/09 07:00:10;;;;;;;21.50;19.47;;;20.80;99.90;;;;;;4966972;28;20443;-76
2021/06/09 07:02:38;;;;;;;19.23;17.60;;;20.80;99.90;;;;;;4962670;28;20803;-77
2021/06/09 07:05:05;;;;;;;18.93;17.53;;;20.90;99.90;;;;;;4953327;28;20430;-77
2021/06/09 07:07:32;;;;;;;21.27;19.40;;;21.00;99.90;;;;;;4968133;28;20423;-74
2021/06/09 07:10:03;;;;;;;19.20;17.67;;;21.10;99.90;;;;;;4970620;28;20420;-77
2021/06/09 07:12:28;;;;;;;17.87;16.47;;;21.30;99.90;;;;;;4970767;28;20459;-76
2021/06/09 07:14:55;;;;;;;20.73;17.60;;;21.60;99.90;;;;;;4968058;28;20431;-76
2021/06/09 07:17:22;;;;;;;18.60;16.87;;;21.90;99.90;;;;;;4970556;28;20180;-74
2021/06/09 07:19:48;;;;;;;19.20;17.70;;;22.20;99.90;;;;;;4967067;28;20800;-74
2021/06/09 07:22:15;;;;;;;17.10;15.70;;;22.50;99.90;;;;;;4967933;28;20762;-75
2021/06/09 07:24:41;;;;;;;16.23;14.93;;;22.80;99.90;;;;;;4965327;28;20419;-75
2021/06/09 07:27:08;;;;;;;18.40;16.90;;;23.10;99.90;;;;;;4968528;28;20428;-76
2021/06/09 07:29:34;;;;;;;19.13;17.37;;;23.10;99.90;;;;;;4969225;28;20454;-77
2021/06/09 07:32:00;;;;;;;19.33;17.90;;;23.00;99.90;;;;;;4970469;28;20427;-78
2021/06/09 07:34:26;;;;;;;24.03;21.93;;;23.00;99.90;;;;;;4974651;28;20483;-78
2021/06/09 07:36:58;;;;;;;19.30;17.57;;;23.20;99.90;;;;;;4972524;28;20937;-78
2021/06/09 07:39:34;;;;;;;21.17;19.30;;;23.40;99.90;;;;;;4987096;28;20220;-75
2021/06/09 07:42:03;;;;;;;17.83;16.40;;;23.50;99.90;;;;;;4971733;28;20454;-75
2021/06/09 07:44:34;;;;;;;20.33;18.73;;;23.60;99.90;;;;;;4970373;28;20415;-72
2021/06/09 07:47:01;;;;;;;17.20;15.80;;;23.80;99.90;;;;;;4965245;28;20432;-75
2021/06/09 07:49:28;;;;;;;18.27;16.97;;;24.00;99.90;;;;;;4951404;28;20448;-75
2021/06/09 07:51:54;;;;;;;17.53;16.07;;;24.50;99.90;;;;;;4951914;28;20503;-74
2021/06/09 07:54:20;;;;;;;17.73;16.33;;;24.70;99.90;;;;;;4951665;28;20859;-73
2021/06/09 07:56:48;;;;;;;18.10;16.70;;;25.00;99.90;;;;;;4966113;28;20180;-74
2021/06/09 07:59:14;;;;;;;19.40;17.90;;;25.00;99.90;;;;;;4967358;28;20476;-75
2021/06/09 08:01:42;;;;;;;17.30;15.90;;;24.90;99.90;;;;;;4951510;28;20427;-75
2021/06/09 08:04:10;;;;;;;19.23;17.83;;;24.90;99.90;;;;;;4951780;28;20454;-74
2021/06/09 08:06:36;;;;;;;18.50;17.00;;;25.10;99.90;;;;;;4965440;28;20477;-75
2021/06/09 08:09:04;;;;;;;19.33;17.80;;;25.20;99.90;;;;;;4970046;28;20823;-73
2021/06/09 08:11:31;;;;;;;16.53;15.27;;;25.30;99.90;;;;;;4970782;28;20195;-74
2021/06/09 08:13:57;;;;;;;19.03;17.57;;;25.50;99.90;;;;;;4969563;28;20423;-74
2021/06/09 08:16:23;;;;;;;18.50;17.10;;;25.80;99.90;;;;;;4980104;28;20814;-74
2021/06/09 08:18:48;;;;;;;20.30;18.90;;;25.70;99.90;;;;;;4969904;28;20459;-75
2021/06/09 08:21:25;;;;;;;18.67;17.20;;;25.80;99.90;;;;;;4970441;28;20195;-74
2021/06/09 08:23:52;;;;;;;17.47;16.07;;;25.70;99.90;;;;;;4970658;28;20164;-75
2021/06/09 08:26:20;;;;;;;18.40;17.00;;;25.80;99.90;;;;;;4967406;28;20805;-74
2021/06/09 08:28:46;;;;;;;19.17;17.47;;;25.90;99.90;;;;;;4969694;28;20849;-75
2021/06/09 08:31:15;;;;;;;20.00;18.30;;;26.00;99.90;;;;;;4970722;28;20828;-74
2021/06/09 08:33:41;;;;;;;19.17;17.63;;;26.00;99.90;;;;;;4969844;28;20861;-75
2021/06/09 08:36:09;;;;;;;17.67;16.47;;;26.10;99.90;;;;;;4966583;28;20419;-75
2021/06/09 08:38:36;;;;;;;19.03;17.63;;;26.30;99.90;;;;;;4969801;28;20917;-75
2021/06/09 08:41:04;;;;;;;19.20;17.63;;;26.50;99.90;;;;;;4970155;28;20536;-75
2021/06/09 08:43:32;;;;;;;18.70;17.27;;;26.80;99.90;;;;;;4969258;28;20880;-76
2021/06/09 08:45:57;;;;;;;19.10;17.63;;;27.00;99.90;;;;;;4967082;28;20548;-73
2021/06/09 08:48:24;;;;;;;21.50;19.80;;;27.20;99.90;;;;;;4968932;28;20575;-75
2021/06/09 08:50:50;;;;;;;20.33;18.73;;;27.20;99.90;;;;;;4970189;28;20177;-73
2021/06/09 08:53:20;;;;;;;21.87;20.13;;;27.30;99.90;;;;;;4970048;28;20493;-74
2021/06/09 08:55:47;;;;;;;21.60;20.00;;;27.60;99.90;;;;;;4966640;28;20875;-74
2021/06/09 08:58:13;;;;;;;23.17;21.17;;;27.80;99.90;;;;;;4969053;28;20474;-73
2021/06/09 09:00:40;;;;;;;21.40;19.70;;;27.60;99.90;;;;;;4970166;28;20490;-74
2021/06/09 09:03:06;;;;;;;16.73;15.33;;;27.30;99.90;;;;;;4969392;28;20807;-73
2021/06/09 09:05:33;;;;;;;18.30;16.90;;;27.70;99.90;;;;;;4966448;28;20435;-73
2021/06/09 09:08:01;;;;;;;18.73;17.43;;;28.00;99.90;;;;;;4967662;28;20455;-75
2021/06/09 09:10:27;;;;;;;19.37;17.87;;;28.10;99.90;;;;;;4969858;28;20431;-74
2021/06/09 09:12:53;;;;;;;19.83;18.33;;;28.40;99.90;;;;;;4969708;28;20427;-73
2021/06/09 09:15:19;;;;;;;21.10;19.37;;;28.60;99.90;;;;;;4966115;28;20431;-73
2021/06/09 09:17:52;;;;;;;18.17;16.97;;;28.50;99.90;;;;;;4968698;28;20444;-73
2021/06/09 09:20:42;;;;;;;22.23;20.63;;;28.90;99.90;;;;;;4969463;28;20522;-73
2021/06/09 09:23:29;;;;;;;18.87;17.47;;;28.70;99.90;;;;;;4962286;28;20431;-73
2021/06/09 09:25:56;;;;;;;20.17;18.40;;;28.60;99.90;;;;;;4965434;28;20543;-73
2021/06/09 09:28:33;;;;;;;16.53;15.23;;;28.60;99.90;;;;;;4968851;28;20447;-74
2021/06/09 09:31:16;;;;;;;19.70;18.20;;;28.80;99.90;;;;;;4969270;28;20419;-72
2021/06/09 09:33:43;;;;;;;19.43;18.03;;;29.30;99.90;;;;;;4969344;28;20419;-73
2021/06/09 09:36:40;;;;;;;18.37;17.07;;;29.10;99.90;;;;;;4966637;28;20486;-73
2021/06/09 09:39:20;;;;;;;18.53;17.03;;;29.50;99.90;;;;;;4956219;28;20890;-73
2021/06/09 09:41:46;;;;;;;19.50;18.13;;;29.70;99.90;;;;;;4969844;28;20427;-74
2021/06/09 09:44:11;;;;;;;18.83;17.53;;;29.80;99.90;;;;;;4968156;28;20428;-74
2021/06/09 09:46:53;;;;;;;15.93;14.70;;;29.80;99.90;;;;;;4965615;28;20177;-72
2021/06/09 09:49:19;;;;;;;18.60;17.40;;;30.40;99.90;;;;;;4968480;28;20196;-74
2021/06/09 09:51:45;;;;;;;20.03;18.63;;;30.70;99.70;;;;;;4968954;28;20436;-73
2021/06/09 09:54:11;;;;;;;19.87;18.10;;;30.30;99.90;;;;;;4968908;28;20428;-74
2021/06/09 09:56:38;;;;;;;18.10;16.80;;;30.40;99.90;;;;;;4966214;28;20180;-73
2021/06/09 09:59:07;;;;;;;18.57;17.27;;;31.00;99.60;;;;;;4966556;28;20470;-74
2021/06/09 10:01:42;;;;;;;19.17;17.87;;;31.20;97.90;;;;;;4949419;29;20428;-74
2021/06/09 10:04:09;;;;;;;21.53;20.03;;;31.60;97.40;;;;;;4950019;28;20507;-74
2021/06/09 10:06:42;;;;;;;20.03;18.53;;;31.10;96.90;;;;;;4963471;28;20419;-74
2021/06/09 10:09:12;;;;;;;18.63;17.33;;;31.30;97.20;;;;;;4968098;28;21010;-73
2021/06/09 10:11:40;;;;;;;19.20;17.70;;;30.90;97.20;;;;;;4968382;28;20465;-74
2021/06/09 10:14:16;;;;;;;20.20;18.80;;;30.30;98.10;;;;;;4968584;28;20876;-74
2021/06/09 10:16:43;;;;;;;19.70;18.20;;;30.40;98.10;;;;;;4965255;28;20458;-74
2021/06/09 10:19:13;;;;;;;19.20;17.90;;;30.90;97.90;;;;;;4967887;28;20467;-74
2021/06/09 10:21:56;;;;;;;17.73;16.53;;;30.80;97.70;;;;;;4968158;28;20427;-74
2021/06/09 10:24:23;;;;;;;18.17;16.77;;;31.10;97.40;;;;;;4968391;28;20427;-73
2021/06/09 10:26:58;;;;;;;18.67;17.17;;;31.00;97.30;;;;;;4965599;28;20790;-74
2021/06/09 10:29:25;;;;;;;18.87;17.27;;;30.40;97.20;;;;;;4967653;28;20446;-74
2021/06/09 10:31:57;;;;;;;20.13;18.67;;;30.00;98.20;;;;;;4968633;28;20514;-73
2021/06/09 10:34:28;;;;;;;28.40;23.67;;;29.40;98.70;;;;;;4968575;28;20442;-74
2021/06/09 10:36:55;;;;;;;20.77;19.27;;;28.70;99.50;;;;;;4965658;28;20542;-68
2021/06/09 10:39:26;;;;;;;22.07;20.30;;;28.30;99.90;;;;;;4967798;28;20525;-68
2021/06/09 10:41:54;;;;;;;22.17;20.23;;;27.90;99.90;;;;;;4968465;28;20427;-67
2021/06/09 10:44:22;;;;;;;21.90;20.07;;;27.90;99.90;;;;;;4968324;28;20419;-64
2021/06/09 10:46:52;;;;;;;22.43;20.73;;;27.70;99.90;;;;;;4965178;28;20486;-62
2021/06/09 10:49:22;;;;;;;21.90;20.03;;;27.60;99.90;;;;;;4967264;28;20498;-64
2021/06/09 10:51:50;;;;;;;22.77;20.90;;;27.60;99.90;;;;;;4968064;28;20430;-64
2021/06/09 10:54:17;;;;;;;23.50;21.77;;;27.70;99.90;;;;;;4968333;28;20431;-63
2021/06/09 10:56:45;;;;;;;24.10;22.30;;;28.60;99.90;;;;;;4964742;28;20522;-64
2021/06/09 10:59:15;;;;;;;26.37;24.07;;;30.10;98.90;;;;;;4964712;28;20880;-64
2021/06/09 11:01:42;;;;;;;23.90;21.90;;;30.10;98.50;;;;;;4948800;28;20420;-65
2021/06/09 11:04:08;;;;;;;25.17;23.37;;;29.60;99.20;;;;;;4948861;28;20844;-64
2021/06/09 11:06:43;;;;;;;21.73;20.00;;;28.90;99.90;;;;;;4962861;28;20933;-65
2021/06/09 11:09:15;;;;;;;21.70;20.10;;;28.70;99.90;;;;;;4971115;28;20438;-64
2021/06/09 11:11:41;;;;;;;22.00;20.40;;;28.20;99.90;;;;;;4971434;28;20434;-64
2021/06/09 11:14:22;;;;;;;22.57;20.87;;;27.70;99.90;;;;;;4972166;28;20514;-65
2021/06/09 11:16:50;;;;;;;22.40;20.70;;;27.50;99.90;;;;;;4968935;28;20191;-64
2021/06/09 11:19:37;;;;;;;23.40;21.30;;;27.40;99.90;;;;;;4972729;28;20570;-64
2021/06/09 11:22:14;;;;;;;23.77;21.83;;;27.30;99.90;;;;;;4991221;28;20521;-64
2021/06/09 11:24:40;;;;;;;22.43;20.77;;;26.80;99.90;;;;;;4987172;28;20426;-65
2021/06/09 11:27:26;;;;;;;23.57;21.77;;;26.60;99.90;;;;;;4970463;28;20709;-65
2021/06/09 11:29:51;;;;;;;48.87;44.33;;;26.60;99.90;;;;;;4971781;28;20218;-64
2021/06/09 11:32:22;;;;;;;23.50;21.77;;;26.70;99.90;;;;;;4970729;28;20467;-65
2021/06/09 11:34:59;;;;;;;22.93;21.27;;;26.70;99.90;;;;;;4969016;28;20196;-64
2021/06/09 11:37:25;;;;;;;20.83;19.17;;;27.70;99.90;;;;;;4970254;28;20430;-64
2021/06/09 11:39:59;;;;;;;24.17;22.40;;;29.40;99.80;;;;;;4971836;28;20518;-66
2021/06/09 11:42:25;;;;;;;21.10;19.50;;;30.50;97.90;;;;;;4971418;28;20420;-64
2021/06/09 11:44:52;;;;;;;22.77;21.17;;;31.70;96.10;;;;;;4968791;28;20442;-67
2021/06/09 11:47:25;;;;;;;20.67;19.20;;;31.70;93.40;;;;;;4969881;28;20514;-66
2021/06/09 11:49:53;;;;;;;21.70;20.10;;;31.90;92.80;;;;;;4970952;28;20954;-64
2021/06/09 11:52:19;;;;;;;20.17;18.80;;;32.40;92.40;;;;;;4971347;28;20430;-65
2021/06/09 11:54:45;;;;;;;21.07;19.37;;;34.30;90.10;;;;;;4968589;28;20575;-64
2021/06/09 11:57:21;;;;;;;21.50;19.90;;;35.20;83.90;;;;;;4970469;28;20514;-66
2021/06/09 11:59:49;;;;;;;18.63;17.03;;;36.00;79.30;;;;;;4970921;28;20302;-65
2021/06/09 12:02:23;;;;;;;17.77;16.63;;;35.20;77.90;;;;;;4970638;28;20446;-65
2021/06/09 12:04:53;;;;;;;17.70;16.60;;;34.70;79.60;;;;;;4968316;28;20972;-65
2021/06/09 12:07:21;;;;;;;17.37;16.30;;;35.00;79.00;;;;;;4969982;28;20431;-65
2021/06/09 12:09:48;;;;;;;17.20;16.20;;;35.00;78.70;;;;;;4970834;28;20431;-64
2021/06/09 12:12:21;;;;;;;16.20;15.20;;;34.60;80.40;;;;;;4970939;28;20428;-65
2021/06/09 12:14:51;;;;;;;15.93;14.93;;;33.10;86.00;;;;;;4968189;28;20502;-64
2021/06/09 12:17:23;;;;;;;15.50;14.40;;;31.20;90.30;;;;;;4969711;28;20431;-64
2021/06/09 12:19:50;;;;;;;18.03;16.53;;;30.40;92.70;;;;;;4970449;28;20493;-65
2021/06/09 12:22:21;;;;;;;17.63;16.23;;;29.80;94.40;;;;;;4970331;28;20424;-66
2021/06/09 12:25:10;;;;;;;19.40;17.97;;;29.50;95.10;;;;;;4967691;28;20543;-66
2021/06/09 12:27:38;;;;;;;16.60;15.50;;;29.60;95.20;;;;;;4969399;28;20427;-64
2021/06/09 12:30:09;;;;;;;17.03;15.93;;;31.70;94.50;;;;;;4970019;28;20792;-66
2021/06/09 12:32:36;;;;;;;15.37;14.43;;;34.50;90.70;;;;;;4969577;28;20968;-64
2021/06/09 12:35:10;;;;;;;15.90;15.00;;;36.40;84.20;;;;;;4966173;28;20534;-64
2021/06/09 12:37:58;;;;;;;14.73;13.83;;;38.00;77.90;;;;;;4968410;28;20427;-65